createdAt,value
2022-07-29T00:00:25.737Z,29.40
2022-07-29T00:02:55.966Z,29.40
2022-07-29T00:05:24.462Z,29.30
2022-07-29T00:07:52.849Z,29.40
2022-07-29T00:10:21.490Z,29.40
2022-07-29T00:12:50.098Z,29.40
2022-07-29T00:15:18.531Z,29.40
2022-07-29T00:17:46.943Z,29.40
2022-07-29T00:20:17.103Z,29.40
2022-07-29T00:22:45.639Z,29.40
2022-07-29T00:25:15.249Z,29.40
2022-07-29T00:27:43.609Z,29.40
2022-07-29T00:30:12.562Z,29.40
2022-07-29T00:32:41.082Z,29.40
2022-07-29T00:35:27.948Z,29.40
2022-07-29T00:37:57.818Z,29.30
2022-07-29T00:40:26.363Z,29.30
2022-07-29T00:42:55.201Z,29.30
2022-07-29T00:45:24.140Z,29.20
2022-07-29T00:47:52.689Z,29.20
2022-07-29T00:50:21.313Z,29.30
2022-07-29T00:52:50.118Z,29.30
2022-07-29T00:55:20.163Z,29.30
2022-07-29T00:57:48.884Z,29.20
2022-07-29T01:00:19.811Z,29.20
2022-07-29T01:02:49.619Z,29.30
2022-07-29T01:05:20.507Z,29.20
2022-07-29T01:07:50.727Z,29.20
2022-07-29T01:10:22.055Z,29.20
2022-07-29T01:12:52.533Z,29.20
2022-07-29T01:15:21.040Z,29.20
2022-07-29T01:17:59.812Z,29.10
2022-07-29T01:20:37.231Z,29.10
2022-07-29T01:23:39.299Z,29.20
2022-07-29T01:26:33.881Z,29.10
2022-07-29T01:29:13.151Z,29.10
2022-07-29T01:31:56.599Z,29.10
2022-07-29T01:34:33.445Z,29.00
2022-07-29T01:37:09.326Z,29.00
2022-07-29T01:39:39.823Z,28.90
2022-07-29T01:42:15.176Z,29.00
2022-07-29T01:44:52.940Z,28.90
2022-07-29T01:47:25.880Z,28.90
2022-07-29T01:49:58.783Z,28.90
2022-07-29T01:52:35.893Z,28.90
2022-07-29T01:55:10.133Z,29.00
2022-07-29T01:57:41.038Z,28.90
2022-07-29T02:00:12.977Z,29.00
2022-07-29T02:02:43.549Z,29.00
2022-07-29T02:05:16.355Z,29.00
2022-07-29T02:07:46.952Z,29.00
2022-07-29T02:10:16.856Z,29.00
2022-07-29T02:12:50.787Z,29.00
2022-07-29T02:15:21.780Z,29.00
2022-07-29T02:17:56.202Z,29.00
2022-07-29T02:20:26.136Z,29.00
2022-07-29T02:22:56.129Z,29.00
2022-07-29T02:25:25.848Z,28.90
2022-07-29T02:28:07.725Z,28.80
2022-07-29T02:30:41.528Z,28.70
2022-07-29T02:33:12.270Z,28.70
2022-07-29T02:35:42.506Z,28.70
2022-07-29T02:38:31.982Z,28.70
2022-07-29T02:41:03.292Z,28.70
2022-07-29T02:43:34.485Z,28.60
2022-07-29T02:46:06.876Z,28.60
2022-07-29T02:49:01.748Z,28.60
2022-07-29T02:51:44.057Z,28.60
2022-07-29T02:54:21.525Z,28.50
2022-07-29T02:56:53.706Z,28.50
2022-07-29T02:59:27.634Z,28.50
2022-07-29T03:01:59.851Z,28.50
2022-07-29T03:04:30.399Z,28.50
2022-07-29T03:07:01.837Z,28.50
2022-07-29T03:09:31.838Z,28.50
2022-07-29T03:12:00.625Z,28.50
2022-07-29T03:14:29.334Z,28.40
2022-07-29T03:16:59.556Z,28.40
2022-07-29T03:19:29.303Z,28.40
2022-07-29T03:21:59.244Z,28.40
2022-07-29T03:24:29.007Z,28.40
2022-07-29T03:26:58.502Z,28.40
2022-07-29T03:29:33.762Z,28.30
2022-07-29T03:32:08.482Z,28.40
2022-07-29T03:34:38.463Z,28.30
2022-07-29T03:37:08.051Z,28.30
2022-07-29T03:39:41.954Z,28.30
2022-07-29T03:42:13.279Z,28.20
2022-07-29T03:44:43.783Z,28.20
2022-07-29T03:47:16.215Z,28.20
2022-07-29T03:49:46.648Z,28.20
2022-07-29T03:52:15.785Z,28.20
2022-07-29T03:54:44.623Z,28.20
2022-07-29T03:57:14.662Z,28.20
2022-07-29T03:59:44.530Z,28.20
2022-07-29T04:02:20.084Z,28.20
2022-07-29T04:04:50.863Z,28.10
2022-07-29T04:07:19.538Z,28.10
2022-07-29T04:09:48.420Z,28.10
2022-07-29T04:12:17.268Z,28.00
2022-07-29T04:14:45.918Z,28.00
2022-07-29T04:17:15.942Z,28.00
2022-07-29T04:19:44.635Z,28.00
2022-07-29T04:22:13.348Z,28.00
2022-07-29T04:24:44.419Z,28.00
2022-07-29T04:27:13.268Z,28.00
2022-07-29T04:29:56.287Z,28.00
2022-07-29T04:32:27.730Z,28.00
2022-07-29T04:34:56.342Z,28.00
2022-07-29T04:37:25.367Z,27.90
2022-07-29T04:39:54.013Z,28.00
2022-07-29T04:42:27.597Z,27.90
2022-07-29T04:44:57.949Z,28.00
2022-07-29T04:47:31.381Z,28.00
2022-07-29T04:50:00.092Z,28.00
2022-07-29T04:52:28.531Z,28.00
2022-07-29T04:54:56.892Z,28.00
2022-07-29T04:57:25.299Z,28.00
2022-07-29T04:59:53.893Z,28.00
2022-07-29T05:02:22.978Z,27.90
2022-07-29T05:04:52.855Z,27.90
2022-07-29T05:07:22.037Z,27.90
2022-07-29T05:09:50.495Z,27.90
2022-07-29T05:12:18.965Z,27.90
2022-07-29T05:14:47.406Z,27.90
2022-07-29T05:17:15.893Z,27.90
2022-07-29T05:19:44.340Z,27.90
2022-07-29T05:22:14.203Z,27.90
2022-07-29T05:24:43.053Z,27.90
2022-07-29T05:27:11.636Z,27.90
2022-07-29T05:29:43.907Z,28.00
2022-07-29T05:32:13.791Z,28.00
2022-07-29T05:34:51.160Z,28.00
2022-07-29T05:37:21.865Z,28.00
2022-07-29T05:39:56.769Z,28.00
2022-07-29T05:42:26.544Z,28.00
2022-07-29T05:44:55.171Z,28.00
2022-07-29T05:47:23.666Z,28.00
2022-07-29T05:49:52.650Z,28.00
2022-07-29T05:52:22.512Z,28.00
2022-07-29T05:54:50.878Z,28.00
2022-07-29T05:57:20.057Z,28.00
2022-07-29T05:59:49.115Z,28.00
2022-07-29T06:02:18.403Z,28.00
2022-07-29T06:04:47.171Z,28.00
2022-07-29T06:07:15.584Z,28.00
2022-07-29T06:09:45.604Z,28.00
2022-07-29T06:12:14.061Z,28.00
2022-07-29T06:14:42.539Z,28.00
2022-07-29T06:17:12.671Z,28.00
2022-07-29T06:19:41.297Z,28.00
2022-07-29T06:22:09.733Z,28.00
2022-07-29T06:24:42.575Z,28.00
2022-07-29T06:27:12.392Z,28.00
2022-07-29T06:29:40.927Z,28.00
2022-07-29T06:32:10.243Z,28.00
2022-07-29T06:34:38.861Z,28.10
2022-07-29T06:37:09.443Z,28.10
2022-07-29T06:39:44.420Z,28.10
2022-07-29T06:42:14.474Z,28.10
2022-07-29T06:44:43.667Z,28.10
2022-07-29T06:47:12.315Z,28.10
2022-07-29T06:49:41.113Z,28.10
2022-07-29T06:52:09.839Z,28.20
2022-07-29T06:54:39.798Z,28.20
2022-07-29T06:57:08.418Z,28.20
2022-07-29T06:59:38.452Z,28.20
2022-07-29T07:02:07.366Z,28.20
2022-07-29T07:04:38.582Z,28.20
2022-07-29T07:07:07.054Z,28.20
2022-07-29T07:09:40.532Z,28.20
2022-07-29T07:12:09.694Z,28.20
2022-07-29T07:14:40.775Z,28.30
2022-07-29T07:17:09.318Z,28.30
2022-07-29T07:19:37.796Z,28.30
2022-07-29T07:22:06.203Z,28.30
2022-07-29T07:24:34.556Z,28.30
2022-07-29T07:27:02.981Z,28.30
2022-07-29T07:29:31.658Z,28.30
2022-07-29T07:32:01.758Z,28.40
2022-07-29T07:34:31.138Z,28.40
2022-07-29T07:37:00.111Z,28.40
2022-07-29T07:39:28.631Z,28.40
2022-07-29T07:41:57.051Z,28.40
2022-07-29T07:44:25.591Z,28.40
2022-07-29T07:46:54.676Z,28.40
2022-07-29T07:49:24.842Z,28.40
2022-07-29T07:51:54.060Z,28.50
2022-07-29T07:54:22.698Z,28.50
2022-07-29T07:56:53.365Z,28.50
2022-07-29T07:59:22.094Z,28.50
2022-07-29T08:01:55.656Z,28.50
2022-07-29T08:04:28.510Z,28.50
2022-07-29T08:06:58.243Z,28.50
2022-07-29T08:09:30.078Z,28.60
2022-07-29T08:12:00.268Z,28.60
2022-07-29T08:14:28.740Z,28.60
2022-07-29T08:16:57.238Z,28.60
2022-07-29T08:19:27.227Z,28.60
2022-07-29T08:21:56.041Z,28.60
2022-07-29T08:24:42.465Z,28.60
2022-07-29T08:27:33.372Z,28.60
2022-07-29T08:30:00.312Z,28.60
2022-07-29T08:32:52.157Z,28.60
2022-07-29T08:35:20.177Z,28.60
2022-07-29T08:37:48.711Z,28.70
2022-07-29T08:40:17.677Z,28.70
2022-07-29T08:42:46.234Z,28.70
2022-07-29T08:45:14.795Z,28.70
2022-07-29T08:47:43.424Z,28.80
2022-07-29T08:50:12.416Z,28.80
2022-07-29T08:52:44.305Z,28.80
2022-07-29T08:55:13.826Z,28.80
2022-07-29T08:57:51.999Z,28.80
2022-07-29T09:00:27.805Z,28.90
2022-07-29T09:03:00.361Z,28.90
2022-07-29T09:05:29.911Z,28.90
2022-07-29T09:08:01.532Z,28.90
2022-07-29T09:10:31.302Z,28.90
2022-07-29T09:13:00.526Z,28.90
2022-07-29T09:15:32.769Z,29.00
2022-07-29T09:18:01.450Z,29.00
2022-07-29T09:20:51.575Z,29.00
2022-07-29T09:23:24.470Z,29.00
2022-07-29T09:25:53.501Z,29.00
2022-07-29T09:28:22.101Z,29.10
2022-07-29T09:30:55.054Z,29.10
2022-07-29T09:33:24.962Z,29.10
2022-07-29T09:36:03.115Z,29.10
2022-07-29T09:38:34.965Z,29.10
2022-07-29T09:41:06.819Z,29.10
2022-07-29T09:43:36.658Z,29.20
2022-07-29T09:46:13.778Z,29.20
2022-07-29T09:48:42.720Z,29.20
2022-07-29T09:51:25.484Z,29.20
2022-07-29T09:54:01.411Z,29.20
2022-07-29T09:56:41.702Z,29.20
2022-07-29T09:59:12.303Z,29.30
2022-07-29T10:01:40.725Z,29.30
2022-07-29T10:04:09.695Z,29.30
2022-07-29T10:07:03.932Z,29.30
2022-07-29T10:09:35.639Z,29.40
2022-07-29T10:12:10.518Z,29.40
2022-07-29T10:14:40.177Z,29.40
2022-07-29T10:17:10.443Z,29.40
2022-07-29T10:19:41.098Z,29.50
2022-07-29T10:22:11.332Z,29.50
2022-07-29T10:24:42.249Z,29.50
2022-07-29T10:27:11.453Z,29.50
2022-07-29T10:29:40.238Z,29.50
2022-07-29T10:32:32.115Z,29.60
2022-07-29T10:35:24.764Z,29.50
2022-07-29T10:38:14.830Z,29.60
2022-07-29T10:41:13.156Z,29.60
2022-07-29T10:43:51.357Z,29.60
2022-07-29T10:46:22.025Z,29.70
2022-07-29T10:49:15.413Z,29.70
2022-07-29T10:52:05.898Z,29.70
2022-07-29T10:54:51.166Z,29.70
2022-07-29T10:57:52.776Z,29.80
2022-07-29T11:00:30.989Z,29.80
2022-07-29T11:03:00.211Z,29.90
2022-07-29T11:05:32.023Z,29.80
2022-07-29T11:08:25.972Z,29.90
2022-07-29T11:11:17.323Z,29.90
2022-07-29T11:13:53.270Z,30.00
2022-07-29T11:16:25.260Z,30.00
2022-07-29T11:19:26.656Z,30.00
2022-07-29T11:21:59.823Z,30.00
2022-07-29T11:24:34.981Z,30.00
2022-07-29T11:27:19.832Z,30.10
2022-07-29T11:29:55.961Z,30.10
2022-07-29T11:32:29.262Z,30.10
2022-07-29T11:35:17.527Z,30.20
2022-07-29T11:40:37.264Z,30.20
2022-07-29T11:43:07.198Z,30.30
2022-07-29T11:45:49.519Z,30.30
2022-07-29T11:48:29.494Z,30.40
2022-07-29T11:51:01.260Z,30.40
2022-07-29T11:53:32.668Z,30.40
2022-07-29T11:58:52.045Z,30.50
2022-07-29T12:01:25.499Z,30.50
2022-07-29T12:04:06.893Z,30.50
2022-07-29T12:06:36.304Z,30.60
2022-07-29T12:07:03.607Z,30.20
2022-07-29T12:09:11.217Z,30.50
2022-07-29T12:11:45.071Z,30.60
2022-07-29T12:14:32.023Z,30.70
2022-07-29T12:17:03.396Z,30.70
2022-07-29T12:19:44.963Z,30.70
2022-07-29T12:22:13.502Z,30.70
2022-07-29T12:24:48.050Z,30.70
2022-07-29T12:27:29.448Z,30.70
2022-07-29T12:29:58.808Z,30.70
2022-07-29T12:32:34.976Z,30.80
2022-07-29T12:35:06.821Z,30.80
2022-07-29T12:37:41.395Z,30.80
2022-07-29T12:40:12.736Z,30.90
2022-07-29T12:42:41.845Z,30.90
2022-07-29T12:45:10.692Z,30.90
2022-07-29T12:50:33.518Z,30.90
2022-07-29T12:53:13.288Z,31.00
2022-07-29T12:55:44.033Z,31.00
2022-07-29T12:58:12.775Z,31.00
2022-07-29T13:00:41.540Z,31.00
2022-07-29T13:03:10.112Z,31.10
2022-07-29T13:05:49.324Z,31.10
2022-07-29T13:08:22.211Z,31.10
2022-07-29T13:10:51.350Z,31.20
2022-07-29T13:13:20.158Z,31.20
2022-07-29T13:15:49.344Z,31.20
2022-07-29T13:18:30.439Z,31.20
2022-07-29T13:21:13.300Z,31.20
2022-07-29T13:23:42.284Z,31.20
2022-07-29T13:26:12.467Z,31.20
2022-07-29T13:28:44.188Z,31.20
2022-07-29T13:31:13.084Z,31.20
2022-07-29T13:33:41.580Z,31.20
2022-07-29T13:36:11.583Z,31.20
2022-07-29T13:38:40.037Z,31.30
2022-07-29T13:41:08.573Z,31.20
2022-07-29T13:43:37.148Z,31.30
2022-07-29T13:46:05.622Z,31.30
2022-07-29T13:48:33.974Z,31.30
2022-07-29T13:51:02.390Z,31.30
2022-07-29T13:53:32.187Z,31.30
2022-07-29T13:56:01.100Z,31.30
2022-07-29T13:58:29.502Z,31.30
2022-07-29T14:00:59.117Z,31.30
2022-07-29T14:03:27.585Z,31.30
2022-07-29T14:05:57.337Z,31.30
2022-07-29T14:08:25.851Z,31.40
2022-07-29T14:10:55.632Z,31.40
2022-07-29T14:13:25.597Z,31.40
2022-07-29T14:15:56.543Z,31.40
2022-07-29T14:18:24.973Z,31.40
2022-07-29T14:20:53.498Z,31.40
2022-07-29T14:23:22.176Z,31.40
2022-07-29T14:25:50.565Z,31.40
2022-07-29T14:28:21.102Z,31.40
2022-07-29T14:30:49.650Z,31.40
2022-07-29T14:33:18.647Z,31.50
2022-07-29T14:35:50.189Z,31.40
2022-07-29T14:38:19.313Z,31.40
2022-07-29T14:40:50.892Z,31.40
2022-07-29T14:43:21.805Z,31.40
2022-07-29T14:45:51.070Z,31.40
2022-07-29T14:48:19.823Z,31.40
2022-07-29T14:50:48.336Z,31.40
2022-07-29T14:53:16.889Z,31.40
2022-07-29T14:55:45.988Z,31.50
2022-07-29T14:58:16.644Z,31.50
2022-07-29T15:00:47.333Z,31.50
2022-07-29T15:03:22.921Z,31.50
2022-07-29T15:05:52.555Z,31.50
2022-07-29T15:08:21.067Z,31.50
2022-07-29T15:10:49.845Z,31.50
2022-07-29T15:13:18.403Z,31.50
2022-07-29T15:15:48.488Z,31.50
2022-07-29T15:18:17.013Z,31.50
2022-07-29T15:20:54.228Z,31.60
2022-07-29T15:23:22.651Z,31.60
2022-07-29T15:25:51.045Z,31.60
2022-07-29T15:28:19.552Z,31.60
2022-07-29T15:30:49.605Z,31.60
2022-07-29T15:33:17.986Z,31.60
2022-07-29T15:35:46.521Z,31.70
2022-07-29T15:38:15.518Z,31.60
2022-07-29T15:40:44.648Z,31.60
2022-07-29T15:43:13.155Z,31.70
2022-07-29T15:46:03.566Z,31.60
2022-07-29T15:48:33.646Z,31.60
2022-07-29T15:51:02.647Z,31.60
2022-07-29T15:53:31.053Z,31.60
2022-07-29T15:56:01.647Z,31.50
2022-07-29T15:58:30.146Z,31.50
2022-07-29T16:00:58.969Z,31.50
2022-07-29T16:03:27.467Z,31.50
2022-07-29T16:05:57.473Z,31.50
2022-07-29T16:08:25.915Z,31.50
2022-07-29T16:10:54.367Z,31.40
2022-07-29T16:13:23.834Z,31.50
2022-07-29T16:16:02.816Z,31.50
2022-07-29T16:18:31.629Z,31.40
2022-07-29T16:21:01.701Z,31.40
2022-07-29T16:23:30.107Z,31.30
2022-07-29T16:26:00.421Z,31.30
2022-07-29T16:28:29.625Z,31.30
2022-07-29T16:30:58.379Z,31.30
2022-07-29T16:33:27.386Z,31.30
2022-07-29T16:35:55.840Z,31.30
2022-07-29T16:38:47.397Z,31.30
2022-07-29T16:41:16.580Z,31.30
2022-07-29T16:43:45.126Z,31.30
2022-07-29T16:46:18.962Z,31.30
2022-07-29T16:48:48.475Z,31.30
2022-07-29T16:51:17.332Z,31.20
2022-07-29T16:53:49.767Z,31.20
2022-07-29T16:56:19.230Z,31.20
2022-07-29T16:58:48.062Z,31.20
2022-07-29T17:01:17.614Z,31.20
2022-07-29T17:04:00.810Z,31.20
2022-07-29T17:06:30.124Z,31.20
2022-07-29T17:09:00.274Z,31.20
2022-07-29T17:11:52.554Z,31.20
2022-07-29T17:14:17.448Z,31.20
2022-07-29T17:16:51.735Z,31.20
2022-07-29T17:19:30.304Z,31.20
2022-07-29T17:22:08.380Z,31.20
2022-07-29T17:24:40.934Z,31.20
2022-07-29T17:27:10.244Z,31.20
2022-07-29T17:29:39.329Z,31.10
2022-07-29T17:32:09.330Z,31.10
2022-07-29T17:34:38.227Z,31.20
2022-07-29T17:37:08.516Z,31.10
2022-07-29T17:39:39.984Z,31.10
2022-07-29T17:42:11.370Z,31.00
2022-07-29T17:44:40.609Z,31.10
2022-07-29T17:47:16.071Z,31.00
2022-07-29T17:49:47.428Z,31.00
2022-07-29T17:52:18.707Z,31.00
2022-07-29T17:54:49.373Z,31.00
2022-07-29T17:57:20.080Z,30.90
2022-07-29T17:59:48.828Z,30.90
2022-07-29T18:02:18.114Z,30.90
2022-07-29T18:04:46.612Z,30.90
2022-07-29T18:07:19.320Z,30.90
2022-07-29T18:09:48.320Z,30.90
2022-07-29T18:12:16.704Z,30.80
2022-07-29T18:14:47.668Z,30.90
2022-07-29T18:17:16.977Z,30.90
2022-07-29T18:19:46.866Z,30.80
2022-07-29T18:22:15.368Z,30.90
2022-07-29T18:24:43.982Z,30.90
2022-07-29T18:27:12.999Z,30.90
2022-07-29T18:29:41.652Z,30.80
2022-07-29T18:32:11.515Z,30.90
2022-07-29T18:34:40.156Z,30.80
2022-07-29T18:37:08.762Z,30.80
2022-07-29T18:39:37.507Z,30.80
2022-07-29T18:42:06.371Z,30.80
2022-07-29T18:44:43.517Z,30.70
2022-07-29T18:47:18.451Z,30.70
2022-07-29T18:49:47.063Z,30.70
2022-07-29T18:52:15.772Z,30.70
2022-07-29T18:54:44.416Z,30.70
2022-07-29T18:57:55.156Z,30.70
2022-07-29T19:00:04.999Z,30.60
2022-07-29T19:02:36.024Z,30.70
2022-07-29T19:05:05.355Z,30.70
2022-07-29T19:07:34.157Z,30.60
2022-07-29T19:10:03.386Z,30.60
2022-07-29T19:12:31.874Z,30.60
2022-07-29T19:15:00.432Z,30.60
2022-07-29T19:17:28.860Z,30.60
2022-07-29T19:19:58.568Z,30.60
2022-07-29T19:22:26.986Z,30.60
2022-07-29T19:24:55.337Z,30.60
2022-07-29T19:27:23.794Z,30.60
2022-07-29T19:29:52.515Z,30.60
2022-07-29T19:32:24.968Z,30.60
2022-07-29T19:35:23.338Z,30.60
2022-07-29T19:37:53.840Z,30.60
2022-07-29T19:40:22.302Z,30.60
2022-07-29T19:42:51.834Z,30.60
2022-07-29T19:45:20.836Z,30.60
2022-07-29T19:47:49.682Z,30.60
2022-07-29T19:50:18.205Z,30.60
2022-07-29T19:52:47.638Z,30.50
2022-07-29T19:55:19.328Z,30.50
2022-07-29T19:57:47.915Z,30.50
2022-07-29T20:00:18.223Z,30.50
2022-07-29T20:02:49.614Z,30.50
2022-07-29T20:05:18.037Z,30.50
2022-07-29T20:07:47.930Z,30.50
2022-07-29T20:10:18.448Z,30.50
2022-07-29T20:12:46.864Z,30.50
2022-07-29T20:15:19.686Z,30.50
2022-07-29T20:17:48.213Z,30.50
2022-07-29T20:20:16.894Z,30.50
2022-07-29T20:22:45.663Z,30.50
2022-07-29T20:25:15.536Z,30.50
2022-07-29T20:27:45.791Z,30.50
2022-07-29T20:30:14.701Z,30.40
2022-07-29T20:32:43.661Z,30.50
2022-07-29T20:35:12.287Z,30.40
2022-07-29T20:37:51.415Z,30.40
2022-07-29T20:40:24.006Z,30.40
2022-07-29T20:42:53.864Z,30.40
2022-07-29T20:45:25.017Z,30.40
2022-07-29T20:48:05.256Z,30.40
2022-07-29T20:50:40.511Z,30.30
2022-07-29T20:53:09.414Z,30.40
2022-07-29T20:55:38.511Z,30.40
2022-07-29T20:58:08.509Z,30.30
2022-07-29T21:00:37.885Z,30.30
2022-07-29T21:03:06.328Z,30.40
2022-07-29T21:05:35.530Z,30.40
2022-07-29T21:08:04.512Z,30.30
2022-07-29T21:10:33.104Z,30.30
2022-07-29T21:13:01.739Z,30.30
2022-07-29T21:15:32.746Z,30.30
2022-07-29T21:18:03.207Z,30.30
2022-07-29T21:20:31.868Z,30.30
2022-07-29T21:23:00.526Z,30.20
2022-07-29T21:25:30.241Z,30.20
2022-07-29T21:28:16.265Z,30.20
2022-07-29T21:30:46.890Z,30.20
2022-07-29T21:33:15.580Z,30.20
2022-07-29T21:36:06.418Z,30.10
2022-07-29T21:38:33.371Z,30.20
2022-07-29T21:41:02.429Z,30.20
2022-07-29T21:43:31.393Z,30.10
2022-07-29T21:46:02.292Z,30.20
2022-07-29T21:48:30.792Z,30.10
2022-07-29T21:50:59.842Z,30.10
2022-07-29T21:53:28.684Z,30.10
2022-07-29T21:55:59.395Z,30.10
2022-07-29T21:58:28.048Z,30.10
2022-07-29T22:00:56.712Z,30.10
2022-07-29T22:03:26.803Z,30.10
2022-07-29T22:05:56.261Z,30.10
2022-07-29T22:08:24.960Z,30.10
2022-07-29T22:10:53.575Z,30.10
2022-07-29T22:13:22.242Z,30.10
2022-07-29T22:15:50.904Z,30.10
2022-07-29T22:18:21.080Z,30.10
2022-07-29T22:20:51.876Z,30.10
2022-07-29T22:23:20.621Z,30.10
2022-07-29T22:25:49.378Z,30.10
2022-07-29T22:28:18.179Z,30.00
2022-07-29T22:30:47.013Z,30.00
2022-07-29T22:33:17.560Z,30.00
2022-07-29T22:35:48.447Z,30.00
2022-07-29T22:38:19.241Z,30.00
2022-07-29T22:40:50.594Z,30.00
2022-07-29T22:43:19.292Z,29.90
2022-07-29T22:45:47.810Z,29.90
2022-07-29T22:48:16.337Z,29.90
2022-07-29T22:50:44.647Z,29.90
2022-07-29T22:53:13.125Z,29.90
2022-07-29T22:55:43.006Z,29.80
2022-07-29T22:58:12.905Z,29.80
2022-07-29T23:00:41.407Z,29.80
2022-07-29T23:03:09.731Z,29.70
2022-07-29T23:05:38.136Z,29.70
2022-07-29T23:08:06.751Z,29.70
2022-07-29T23:10:35.544Z,29.60
2022-07-29T23:13:05.304Z,29.60
2022-07-29T23:15:33.880Z,29.60
2022-07-29T23:18:02.228Z,29.60
2022-07-29T23:20:30.893Z,29.60
2022-07-29T23:22:59.284Z,29.60
2022-07-29T23:25:27.641Z,29.60
2022-07-29T23:27:56.003Z,29.60
2022-07-29T23:30:26.209Z,29.60
2022-07-29T23:32:54.763Z,29.60
2022-07-29T23:35:23.832Z,29.60
2022-07-29T23:37:52.267Z,29.50
2022-07-29T23:40:20.858Z,29.60
2022-07-29T23:42:49.359Z,29.60
2022-07-29T23:45:17.996Z,29.60
2022-07-29T23:47:47.759Z,29.50
2022-07-29T23:50:16.946Z,29.40
2022-07-29T23:52:46.021Z,29.40
2022-07-29T23:55:38.293Z,29.40
2022-07-29T23:58:04.225Z,29.40
